Terminal Aerodrome Forecast
Issued by NWS

Home | Current Version | Previous Version | Text Only | Print | Product List | Glossary Off
Versions: 1 2 3 4 5 6 7 8 9 10 11 12 13 14 15 16 17 18 19 20 21 22 23 24 25 26 27 28 29 30 31 32 33 34 35 36 37 38 39 40 41 42 43 44 45 46 47 48 49 50

952
FTUS43 KGRB 190753 AAA
TAFRHI
TAF AMD
KRHI 190753Z 1908/2006 22004KT 1/2SM FG VV002
      TEMPO 1911/1914 1SM BR OVC004
     FM191400 21003KT 1 1/2SM BR OVC004
     FM191500 21006KT 5SM BR BKN008
     FM191700 19005KT P6SM SCT010
     FM200400 19003KT 5SM BR BKN015=

USA.gov is the U.S. government's official web portal to all federal, state and local government web resources and services.